createdAt,value
2023-04-01T00:02:44.908Z,86.10
2023-04-01T00:05:33.658Z,86.40
2023-04-01T00:08:22.713Z,85.97
2023-04-01T00:11:12.632Z,86.32
2023-04-01T00:14:01.410Z,87.18
2023-04-01T00:16:49.966Z,87.18
2023-04-01T00:19:38.528Z,86.04
2023-04-01T00:22:27.893Z,86.52
2023-04-01T00:25:16.704Z,86.89
2023-04-01T00:28:06.606Z,87.28
2023-04-01T00:30:55.201Z,86.94
2023-04-01T00:33:43.657Z,87.51
2023-04-01T00:36:32.141Z,87.65
2023-04-01T00:39:20.808Z,86.98
2023-04-01T00:42:11.748Z,86.77
2023-04-01T00:45:29.187Z,86.04
2023-04-01T00:48:21.471Z,85.42
2023-04-01T00:51:11.811Z,86.07
2023-04-01T00:54:04.659Z,85.40
2023-04-01T00:56:57.124Z,86.14
2023-04-01T00:59:48.391Z,87.15
2023-04-01T01:02:38.379Z,86.99
2023-04-01T01:05:34.668Z,88.73
2023-04-01T01:08:38.592Z,88.11
2023-04-01T01:11:36.999Z,87.90
2023-04-01T01:14:40.662Z,88.25
2023-04-01T01:17:36.645Z,87.59
2023-04-01T01:21:12.746Z,87.33
2023-04-01T01:24:19.589Z,87.69
2023-04-01T01:27:10.087Z,87.83
2023-04-01T01:30:31.918Z,88.34
2023-04-01T01:33:32.063Z,89.18
2023-04-01T01:36:23.236Z,90.43
2023-04-01T01:39:12.088Z,90.01
2023-04-01T01:42:04.232Z,90.71
2023-04-01T01:44:53.731Z,90.63
2023-04-01T01:47:42.857Z,90.69
2023-04-01T01:50:31.447Z,91.56
2023-04-01T01:53:21.429Z,91.26
2023-04-01T01:56:11.639Z,91.56
2023-04-01T01:59:03.479Z,90.18
2023-04-01T02:01:54.508Z,89.26
2023-04-01T02:04:45.541Z,87.96
2023-04-01T02:07:35.448Z,88.16
2023-04-01T02:10:27.409Z,88.07
2023-04-01T02:13:19.820Z,88.11
2023-04-01T02:16:16.042Z,86.61
2023-04-01T02:19:08.216Z,85.87
2023-04-01T02:21:59.581Z,85.61
2023-04-01T02:24:48.159Z,85.32
2023-04-01T02:27:38.209Z,84.89
2023-04-01T02:30:28.538Z,84.22
2023-04-01T02:33:17.497Z,83.39
2023-04-01T02:36:06.353Z,83.21
2023-04-01T02:38:56.347Z,82.50
2023-04-01T02:41:46.278Z,82.15
2023-04-01T02:44:36.185Z,81.78
2023-04-01T02:47:24.636Z,81.89
2023-04-01T02:50:13.266Z,81.09
2023-04-01T02:53:01.822Z,81.15
2023-04-01T02:55:51.373Z,80.93
2023-04-01T02:58:39.848Z,81.19
2023-04-01T03:01:29.740Z,79.71
2023-04-01T03:04:18.221Z,79.55
2023-04-01T03:07:06.944Z,80.49
2023-04-01T03:09:55.430Z,80.20
2023-04-01T03:12:43.917Z,80.63
2023-04-01T03:15:32.608Z,80.75
2023-04-01T03:18:22.620Z,81.47
2023-04-01T03:21:16.278Z,80.64
2023-04-01T03:24:04.857Z,80.18
2023-04-01T03:26:53.322Z,80.90
2023-04-01T03:29:41.793Z,81.11
2023-04-01T03:32:30.566Z,81.06
2023-04-01T03:35:20.767Z,80.82
2023-04-01T03:38:09.259Z,79.58
2023-04-01T03:40:57.716Z,79.81
2023-04-01T03:43:46.684Z,79.61
2023-04-01T03:46:35.222Z,79.45
2023-04-01T03:49:23.786Z,79.34
2023-04-01T03:52:14.033Z,79.90
2023-04-01T03:55:02.869Z,79.18
2023-04-01T03:57:51.276Z,78.90
2023-04-01T04:00:39.754Z,78.99
2023-04-01T04:03:29.108Z,78.77
2023-04-01T04:06:19.175Z,79.61
2023-04-01T04:09:09.054Z,79.32
2023-04-01T04:11:57.483Z,79.95
2023-04-01T04:14:46.280Z,78.91
2023-04-01T04:17:34.843Z,79.00
2023-04-01T04:20:23.332Z,79.29
2023-04-01T04:23:11.754Z,78.30
2023-04-01T04:26:02.573Z,78.29
2023-04-01T04:28:51.009Z,79.23
2023-04-01T04:31:39.536Z,78.89
2023-04-01T04:34:27.984Z,78.63
2023-04-01T04:37:16.540Z,78.67
2023-04-01T04:40:05.513Z,79.41
2023-04-01T04:42:55.320Z,79.04
2023-04-01T04:45:43.829Z,77.71
2023-04-01T04:48:32.292Z,77.69
2023-04-01T04:51:21.991Z,77.66
2023-04-01T04:54:10.698Z,77.63
2023-04-01T04:56:59.231Z,78.23
2023-04-01T04:59:49.100Z,77.89
2023-04-01T05:02:37.853Z,77.63
2023-04-01T05:05:26.566Z,77.72
2023-04-01T05:08:15.085Z,77.18
2023-04-01T05:11:03.923Z,77.67
2023-04-01T05:13:52.440Z,77.74
2023-04-01T05:16:42.306Z,76.86
2023-04-01T05:19:30.802Z,77.44
2023-04-01T05:22:19.343Z,76.90
2023-04-01T05:25:08.525Z,77.57
2023-04-01T05:27:57.078Z,77.75
2023-04-01T05:30:45.939Z,77.88
2023-04-01T05:33:36.088Z,77.30
2023-04-01T05:36:24.606Z,77.77
2023-04-01T05:39:13.232Z,78.03
2023-04-01T05:42:01.741Z,79.47
2023-04-01T05:44:50.211Z,81.20
2023-04-01T05:47:38.726Z,79.55
2023-04-01T05:50:28.609Z,82.50
2023-04-01T05:53:17.109Z,83.61
2023-04-01T05:56:06.142Z,85.34
2023-04-01T05:58:56.369Z,84.51
2023-04-01T06:01:44.977Z,87.71
2023-04-01T06:04:39.249Z,88.02
2023-04-01T06:07:29.802Z,88.62
2023-04-01T06:10:20.132Z,87.98
2023-04-01T06:13:13.866Z,89.25
2023-04-01T06:16:07.159Z,91.81
2023-04-01T06:19:06.349Z,93.12
2023-04-01T06:22:24.370Z,93.77
2023-04-01T06:25:43.570Z,94.25
2023-04-01T06:28:49.636Z,92.60
2023-04-01T06:31:47.865Z,94.79
2023-04-01T06:34:57.597Z,92.96
2023-04-01T06:38:04.179Z,93.01
2023-04-01T06:41:11.568Z,93.95
2023-04-01T06:44:10.378Z,95.11
2023-04-01T06:47:01.045Z,95.04
2023-04-01T06:49:54.693Z,94.60
2023-04-01T06:52:49.400Z,94.78
2023-04-01T06:55:41.495Z,97.07
2023-04-01T06:58:33.702Z,96.55
2023-04-01T07:01:25.073Z,95.97
2023-04-01T07:04:16.610Z,96.56
2023-04-01T07:07:08.176Z,97.37
2023-04-01T07:10:00.135Z,96.50
2023-04-01T07:12:50.591Z,96.99
2023-04-01T07:15:43.133Z,96.97
2023-04-01T07:18:38.072Z,99.63
2023-04-01T07:21:30.524Z,99.55
2023-04-01T07:24:24.247Z,100.00
2023-04-01T07:27:14.350Z,100.00
2023-04-01T07:30:03.599Z,100.00
2023-04-01T07:32:56.440Z,100.00
2023-04-01T07:35:48.829Z,100.00
2023-04-01T07:38:47.186Z,100.00
2023-04-01T07:41:44.408Z,100.00
2023-04-01T07:44:38.048Z,100.00
2023-04-01T07:47:37.171Z,100.00
2023-04-01T07:50:29.813Z,100.00
2023-04-01T07:53:23.708Z,100.00
2023-04-01T07:56:14.423Z,100.00
2023-04-01T07:59:09.372Z,100.00
2023-04-01T08:02:04.912Z,100.00
2023-04-01T08:05:00.466Z,100.00
2023-04-01T08:07:57.740Z,100.00
2023-04-01T08:10:49.788Z,100.00
2023-04-01T08:13:43.151Z,100.00
2023-04-01T08:16:36.476Z,100.00
2023-04-01T08:19:33.996Z,100.00
2023-04-01T08:22:27.697Z,100.00
2023-04-01T08:25:21.134Z,100.00
2023-04-01T08:28:13.856Z,100.00
2023-04-01T08:31:06.274Z,100.00
2023-04-01T08:33:56.205Z,100.00
2023-04-01T08:36:47.272Z,100.00
2023-04-01T08:39:38.678Z,100.00
2023-04-01T08:42:44.796Z,100.00
2023-04-01T08:45:55.339Z,100.00
2023-04-01T08:48:59.604Z,100.00
2023-04-01T08:52:09.992Z,100.00
2023-04-01T08:55:23.734Z,100.00
2023-04-01T08:58:49.109Z,100.00
2023-04-01T09:01:58.792Z,100.00
2023-04-01T09:05:18.953Z,100.00
2023-04-01T09:08:26.840Z,100.00
2023-04-01T09:11:22.419Z,100.00
2023-04-01T09:14:31.068Z,100.00
2023-04-01T09:17:40.412Z,99.84
2023-04-01T09:20:46.998Z,98.51
2023-04-01T09:24:05.646Z,100.00
2023-04-01T09:27:06.491Z,98.95
2023-04-01T09:30:21.941Z,99.86
2023-04-01T09:33:42.900Z,100.00
2023-04-01T09:36:45.939Z,100.00
2023-04-01T09:39:39.123Z,100.00
2023-04-01T09:42:46.810Z,100.00
2023-04-01T09:45:44.970Z,100.00
2023-04-01T09:48:56.065Z,100.00
2023-04-01T09:51:52.788Z,100.00
2023-04-01T09:54:57.609Z,100.00
2023-04-01T09:58:09.969Z,100.00
2023-04-01T10:01:25.938Z,100.00
2023-04-01T10:04:31.110Z,100.00
2023-04-01T10:07:39.238Z,100.00
2023-04-01T10:10:57.751Z,100.00
2023-04-01T10:13:59.019Z,100.00
2023-04-01T10:17:17.862Z,100.00
2023-04-01T10:20:16.611Z,100.00
2023-04-01T10:23:20.503Z,100.00
2023-04-01T10:26:31.279Z,100.00
2023-04-01T10:29:51.995Z,100.00
2023-04-01T10:33:05.009Z,100.00
2023-04-01T10:36:08.852Z,100.00
2023-04-01T10:39:30.963Z,100.00
2023-04-01T10:42:58.553Z,100.00
2023-04-01T10:46:10.509Z,100.00
2023-04-01T10:49:41.560Z,100.00
2023-04-01T10:52:48.945Z,100.00
2023-04-01T10:56:09.589Z,100.00
2023-04-01T10:59:27.798Z,100.00
2023-04-01T11:02:47.609Z,100.00
2023-04-01T11:09:43.725Z,100.00
2023-04-01T11:13:13.570Z,100.00
2023-04-01T11:16:44.349Z,100.00
2023-04-01T11:20:21.584Z,100.00
2023-04-01T11:23:24.111Z,100.00
2023-04-01T11:26:19.740Z,100.00
2023-04-01T11:29:27.122Z,100.00
2023-04-01T11:32:27.026Z,100.00
2023-04-01T11:35:44.316Z,100.00
2023-04-01T11:38:52.970Z,100.00
2023-04-01T11:41:46.829Z,100.00
2023-04-01T11:44:36.294Z,100.00
2023-04-01T11:47:35.793Z,100.00
2023-04-01T11:50:32.316Z,100.00
2023-04-01T11:53:28.865Z,100.00
2023-04-01T11:56:29.115Z,100.00
2023-04-01T11:59:45.382Z,100.00
2023-04-01T12:02:40.731Z,100.00
2023-04-01T12:05:40.248Z,100.00
2023-04-01T12:08:36.218Z,100.00
2023-04-01T12:11:32.376Z,100.00
2023-04-01T12:14:24.548Z,100.00
2023-04-01T12:17:22.478Z,100.00
2023-04-01T12:20:30.651Z,100.00
2023-04-01T12:23:48.439Z,100.00
2023-04-01T12:27:07.356Z,100.00
2023-04-01T12:30:04.874Z,100.00
2023-04-01T12:33:03.891Z,100.00
2023-04-01T12:36:00.382Z,100.00
2023-04-01T12:39:09.628Z,100.00
2023-04-01T12:42:03.424Z,100.00
2023-04-01T12:45:14.110Z,100.00
2023-04-01T12:48:25.467Z,100.00
2023-04-01T12:51:45.306Z,100.00
2023-04-01T12:55:09.012Z,100.00
2023-04-01T12:58:24.073Z,100.00
2023-04-01T13:01:28.302Z,100.00
2023-04-01T13:04:37.603Z,100.00
2023-04-01T13:07:44.539Z,100.00
2023-04-01T13:10:44.005Z,100.00
2023-04-01T13:14:21.666Z,100.00
2023-04-01T13:17:19.047Z,100.00
2023-04-01T13:20:14.981Z,100.00
2023-04-01T13:23:12.104Z,100.00
2023-04-01T13:26:14.180Z,100.00
2023-04-01T13:29:08.516Z,100.00
2023-04-01T13:32:08.191Z,100.00
2023-04-01T13:35:11.115Z,100.00
2023-04-01T13:38:10.484Z,100.00
2023-04-01T13:41:05.045Z,100.00
2023-04-01T13:43:59.445Z,100.00
2023-04-01T13:47:36.340Z,100.00
2023-04-01T13:50:48.662Z,100.00
2023-04-01T13:54:13.895Z,100.00
2023-04-01T13:57:16.453Z,100.00
2023-04-01T14:00:27.973Z,100.00
2023-04-01T14:03:44.637Z,100.00
2023-04-01T14:06:39.309Z,100.00
2023-04-01T14:09:43.508Z,100.00
2023-04-01T14:12:41.011Z,100.00
2023-04-01T14:15:43.781Z,100.00
2023-04-01T14:18:39.478Z,100.00
2023-04-01T14:21:37.163Z,100.00
2023-04-01T14:24:42.941Z,100.00
2023-04-01T14:27:44.356Z,100.00
2023-04-01T14:30:41.010Z,100.00
2023-04-01T14:33:37.993Z,100.00
2023-04-01T14:36:37.754Z,100.00
2023-04-01T14:39:36.151Z,100.00
2023-04-01T14:42:43.561Z,100.00
2023-04-01T14:45:59.121Z,100.00
2023-04-01T14:48:56.178Z,100.00
2023-04-01T14:51:30.515Z,100.00
2023-04-01T14:54:02.910Z,100.00
2023-04-01T14:56:39.425Z,100.00
2023-04-01T14:59:12.873Z,100.00
2023-04-01T15:01:49.248Z,100.00
2023-04-01T15:04:40.101Z,100.00
2023-04-01T15:07:28.119Z,100.00
2023-04-01T15:10:26.232Z,100.00
2023-04-01T15:13:16.481Z,100.00
2023-04-01T15:16:14.175Z,100.00
2023-04-01T15:19:02.246Z,100.00
2023-04-01T15:21:42.242Z,100.00
2023-04-01T15:24:17.943Z,100.00
2023-04-01T15:27:13.950Z,100.00
2023-04-01T15:30:15.708Z,100.00
2023-04-01T15:33:22.390Z,100.00
2023-04-01T15:36:21.550Z,100.00
2023-04-01T15:39:17.776Z,100.00
2023-04-01T15:42:17.908Z,100.00
2023-04-01T15:45:16.747Z,100.00
2023-04-01T15:48:21.676Z,100.00
2023-04-01T15:51:18.538Z,100.00
2023-04-01T15:54:26.208Z,100.00
2023-04-01T15:57:26.202Z,100.00
2023-04-01T16:00:24.559Z,100.00
2023-04-01T16:03:29.109Z,100.00
2023-04-01T16:06:37.515Z,100.00
2023-04-01T16:09:51.350Z,100.00
2023-04-01T16:12:52.979Z,100.00
2023-04-01T16:15:48.541Z,100.00
2023-04-01T16:18:50.687Z,100.00
2023-04-01T16:21:43.088Z,100.00
2023-04-01T16:24:36.856Z,100.00
2023-04-01T16:27:30.695Z,100.00
2023-04-01T16:30:29.699Z,100.00
2023-04-01T16:33:24.089Z,100.00
2023-04-01T16:36:23.496Z,100.00
2023-04-01T16:39:22.416Z,100.00
2023-04-01T16:42:26.053Z,100.00
2023-04-01T16:45:35.401Z,100.00
2023-04-01T16:48:27.927Z,100.00
2023-04-01T16:51:20.130Z,100.00
2023-04-01T16:54:16.795Z,100.00
2023-04-01T16:57:17.764Z,100.00
2023-04-01T17:00:19.012Z,100.00
2023-04-01T17:03:18.354Z,100.00
2023-04-01T17:06:15.914Z,100.00
2023-04-01T17:09:17.974Z,100.00
2023-04-01T17:12:13.528Z,100.00
2023-04-01T17:15:07.213Z,100.00
2023-04-01T17:18:01.629Z,100.00
2023-04-01T17:20:52.695Z,100.00
2023-04-01T17:23:46.303Z,100.00
2023-04-01T17:26:39.567Z,100.00
2023-04-01T17:29:34.424Z,100.00
2023-04-01T17:32:32.208Z,100.00
2023-04-01T17:35:26.503Z,100.00
2023-04-01T17:38:21.224Z,100.00
2023-04-01T17:41:15.881Z,100.00
2023-04-01T17:44:16.876Z,100.00
2023-04-01T18:00:35.302Z,100.00
2023-04-01T18:03:21.067Z,100.00
2023-04-01T18:06:11.414Z,100.00
2023-04-01T18:09:01.635Z,100.00
2023-04-01T18:11:58.479Z,100.00
2023-04-01T18:14:55.948Z,100.00
2023-04-01T18:17:58.539Z,100.00
2023-04-01T18:20:55.514Z,100.00
2023-04-01T18:23:59.161Z,100.00
2023-04-01T18:26:53.392Z,100.00
2023-04-01T18:29:44.073Z,100.00
2023-04-01T18:32:37.765Z,100.00
2023-04-01T18:35:33.892Z,100.00
2023-04-01T18:38:27.799Z,100.00
2023-04-01T18:41:17.570Z,100.00
2023-04-01T18:44:18.692Z,100.00
2023-04-01T18:47:18.304Z,100.00
2023-04-01T18:50:16.342Z,100.00
2023-04-01T18:53:19.969Z,100.00
2023-04-01T18:56:09.259Z,100.00
2023-04-01T18:59:03.419Z,100.00
2023-04-01T19:02:01.578Z,100.00
2023-04-01T19:04:54.636Z,100.00
2023-04-01T19:07:47.320Z,100.00
2023-04-01T19:10:43.607Z,100.00
2023-04-01T19:13:39.036Z,100.00
2023-04-01T19:16:34.857Z,100.00
2023-04-01T19:19:31.350Z,100.00
2023-04-01T19:22:33.623Z,100.00
2023-04-01T19:25:33.521Z,100.00
2023-04-01T19:28:30.110Z,100.00
2023-04-01T19:31:32.763Z,100.00
2023-04-01T19:34:29.115Z,100.00
2023-04-01T19:37:27.514Z,100.00
2023-04-01T19:40:24.660Z,100.00
2023-04-01T19:43:21.057Z,100.00
2023-04-01T19:46:18.850Z,100.00
2023-04-01T19:49:29.016Z,100.00
2023-04-01T19:52:22.674Z,100.00
2023-04-01T19:55:22.542Z,100.00
2023-04-01T19:58:15.658Z,100.00
2023-04-01T20:01:06.079Z,100.00
2023-04-01T20:04:00.561Z,100.00
2023-04-01T20:06:54.618Z,100.00
2023-04-01T20:09:51.373Z,100.00
2023-04-01T20:12:45.698Z,100.00
2023-04-01T20:15:37.127Z,100.00
2023-04-01T20:18:29.733Z,100.00
2023-04-01T20:21:32.385Z,100.00
2023-04-01T20:24:24.501Z,100.00
2023-04-01T20:27:20.740Z,100.00
2023-04-01T20:30:41.702Z,100.00
2023-04-01T20:33:45.227Z,100.00
2023-04-01T20:36:38.612Z,100.00
2023-04-01T20:39:47.307Z,100.00
2023-04-01T20:43:05.836Z,100.00
2023-04-01T20:45:59.567Z,100.00
2023-04-01T20:49:09.483Z,100.00
2023-04-01T20:52:05.123Z,100.00
2023-04-01T20:55:25.609Z,100.00
2023-04-01T20:58:20.911Z,100.00
2023-04-01T21:01:17.987Z,100.00
2023-04-01T21:04:22.408Z,100.00
2023-04-01T21:07:23.359Z,100.00
2023-04-01T21:10:22.752Z,100.00
2023-04-01T21:13:27.041Z,100.00
2023-04-01T21:16:26.021Z,100.00
2023-04-01T21:19:31.892Z,100.00
2023-04-01T21:22:38.905Z,100.00
2023-04-01T21:25:36.087Z,100.00
2023-04-01T21:28:38.010Z,100.00
2023-04-01T21:31:37.992Z,100.00
2023-04-01T21:34:44.642Z,100.00
2023-04-01T21:37:51.452Z,100.00
2023-04-01T21:40:50.087Z,100.00
2023-04-01T21:43:58.649Z,100.00
2023-04-01T21:47:11.196Z,100.00
2023-04-01T21:50:26.334Z,100.00
2023-04-01T21:54:00.098Z,100.00
2023-04-01T21:57:16.801Z,98.48
2023-04-01T22:00:21.131Z,97.57
2023-04-01T22:03:35.610Z,97.83
2023-04-01T22:06:27.325Z,96.75
2023-04-01T22:09:21.106Z,97.07
2023-04-01T22:12:14.321Z,96.22
2023-04-01T22:15:08.653Z,96.44
2023-04-01T22:18:04.196Z,95.38
2023-04-01T22:21:06.013Z,95.03
2023-04-01T22:24:00.045Z,95.38
2023-04-01T22:26:53.731Z,94.50
2023-04-01T22:29:52.981Z,96.49
2023-04-01T22:32:44.765Z,96.12
2023-04-01T22:35:38.977Z,95.92
2023-04-01T22:38:38.272Z,95.96
2023-04-01T22:41:36.023Z,96.78
2023-04-01T22:44:36.517Z,97.30
2023-04-01T22:47:28.448Z,96.56
2023-04-01T22:50:21.492Z,96.70
2023-04-01T22:53:18.807Z,96.91
2023-04-01T22:56:09.609Z,96.59
2023-04-01T22:59:03.000Z,96.21
2023-04-01T23:01:55.830Z,96.40
2023-04-01T23:04:45.826Z,97.13
2023-04-01T23:07:47.911Z,96.93
2023-04-01T23:10:42.734Z,97.28
2023-04-01T23:13:34.124Z,97.29
2023-04-01T23:16:26.144Z,97.93
2023-04-01T23:19:18.418Z,96.84
2023-04-01T23:22:12.031Z,95.22
2023-04-01T23:25:15.076Z,94.97
2023-04-01T23:28:26.814Z,94.49
2023-04-01T23:31:33.157Z,94.32
2023-04-01T23:34:28.117Z,95.20
2023-04-01T23:37:18.681Z,95.86
2023-04-01T23:40:14.567Z,97.08
2023-04-01T23:43:03.047Z,99.43
2023-04-01T23:45:51.640Z,100.00
2023-04-01T23:48:42.067Z,100.00
2023-04-01T23:51:39.670Z,100.00
2023-04-01T23:54:35.791Z,100.00
2023-04-01T23:57:26.673Z,100.00
